createdAt,value
2017-03-31T00:00:05.565Z,14.92
2017-03-31T00:00:46.003Z,14.93
2017-03-31T00:01:26.364Z,14.93
2017-03-31T00:02:06.800Z,15.05
2017-03-31T00:02:47.209Z,14.99
2017-03-31T00:03:27.591Z,14.97
2017-03-31T00:04:09.268Z,15
2017-03-31T00:04:49.631Z,15.02
2017-03-31T00:05:30.488Z,15.04
2017-03-31T00:06:10.899Z,15.04
2017-03-31T00:06:54.301Z,15.08
2017-03-31T00:07:35.501Z,15.12
2017-03-31T00:08:15.938Z,15.05
2017-03-31T00:08:56.313Z,15.19
2017-03-31T00:09:36.707Z,15.12
2017-03-31T00:10:17.087Z,15.14
2017-03-31T00:10:57.515Z,15.23
2017-03-31T00:11:37.889Z,15.18
2017-03-31T00:12:18.416Z,15.18
2017-03-31T00:12:58.766Z,15.1
2017-03-31T00:13:39.145Z,15.19
2017-03-31T00:14:19.580Z,15.18
2017-03-31T00:14:59.994Z,15.14
2017-03-31T00:15:40.392Z,15.25
2017-03-31T00:16:20.787Z,15.18
2017-03-31T00:17:01.221Z,15.08
2017-03-31T00:17:41.649Z,15.14
2017-03-31T00:18:22.046Z,15.05
2017-03-31T00:19:02.491Z,15.12
2017-03-31T00:19:42.923Z,15.07
2017-03-31T00:20:23.312Z,15
2017-03-31T00:21:03.762Z,15.11
2017-03-31T00:21:44.145Z,15.15
2017-03-31T00:22:24.540Z,15.1
2017-03-31T00:23:04.982Z,15.15
2017-03-31T00:23:45.465Z,15.05
2017-03-31T00:24:25.801Z,15.05
2017-03-31T00:25:06.252Z,15.05
2017-03-31T00:25:46.664Z,15.05
2017-03-31T00:26:27.113Z,15.02
2017-03-31T00:27:07.519Z,15.08
2017-03-31T00:27:47.928Z,15.07
2017-03-31T00:28:28.319Z,15.05
2017-03-31T00:29:08.725Z,15.05
2017-03-31T00:29:49.162Z,14.99
2017-03-31T00:30:29.520Z,14.92
2017-03-31T00:31:09.963Z,14.96
2017-03-31T00:31:50.405Z,14.96
2017-03-31T00:32:30.801Z,14.81
2017-03-31T00:33:11.212Z,14.82
2017-03-31T00:33:51.593Z,14.82
2017-03-31T00:34:32.023Z,14.9
2017-03-31T00:35:12.424Z,14.9
2017-03-31T00:35:52.837Z,14.86
2017-03-31T00:36:33.274Z,14.92
2017-03-31T00:37:13.679Z,14.81
2017-03-31T00:37:54.043Z,14.81
2017-03-31T00:38:34.461Z,14.79
2017-03-31T00:39:14.865Z,14.79
2017-03-31T00:39:55.280Z,14.71
2017-03-31T00:40:35.676Z,14.74
2017-03-31T00:41:16.072Z,14.71
2017-03-31T00:41:56.493Z,14.78
2017-03-31T00:42:36.903Z,14.73
2017-03-31T00:43:17.320Z,14.66
2017-03-31T00:43:57.675Z,14.62
2017-03-31T00:44:38.099Z,14.59
2017-03-31T00:45:18.455Z,14.66
2017-03-31T00:45:58.898Z,14.67
2017-03-31T00:46:39.293Z,14.62
2017-03-31T00:47:19.737Z,14.55
2017-03-31T00:48:00.142Z,14.52
2017-03-31T00:48:40.564Z,14.53
2017-03-31T00:49:20.981Z,14.52
2017-03-31T00:50:01.388Z,14.44
2017-03-31T00:50:41.780Z,14.51
2017-03-31T00:51:22.169Z,14.41
2017-03-31T00:52:02.620Z,14.48
2017-03-31T00:52:42.979Z,14.43
2017-03-31T00:53:23.421Z,14.34
2017-03-31T00:54:03.821Z,14.36
2017-03-31T00:54:44.253Z,14.37
2017-03-31T00:55:24.643Z,14.41
2017-03-31T00:56:05.120Z,14.33
2017-03-31T00:56:45.544Z,14.38
2017-03-31T00:57:25.954Z,14.26
2017-03-31T00:58:06.361Z,14.26
2017-03-31T00:58:46.796Z,14.2
2017-03-31T00:59:27.147Z,14.19
2017-03-31T01:00:07.592Z,14.2
2017-03-31T01:00:47.988Z,14.2
2017-03-31T01:01:28.402Z,14.15
2017-03-31T01:02:08.787Z,14.15
2017-03-31T01:02:49.155Z,14.2
2017-03-31T01:03:29.530Z,14.13
2017-03-31T01:04:10.014Z,14.05
2017-03-31T01:04:50.364Z,14.19
2017-03-31T01:05:30.781Z,14.18
2017-03-31T01:06:11.175Z,14.23
2017-03-31T01:06:51.652Z,14.23
2017-03-31T01:07:32.059Z,14.25
2017-03-31T01:08:12.465Z,14.26
2017-03-31T01:08:52.856Z,14.3
2017-03-31T01:09:33.266Z,14.28
2017-03-31T01:10:13.612Z,14.28
2017-03-31T01:10:54.100Z,14.36
2017-03-31T01:11:34.442Z,14.37
2017-03-31T01:12:14.859Z,14.37
2017-03-31T01:12:55.333Z,14.34
2017-03-31T01:13:35.765Z,14.33
2017-03-31T01:14:16.130Z,14.37
2017-03-31T01:14:56.538Z,14.38
2017-03-31T01:15:36.943Z,14.38
2017-03-31T01:16:17.374Z,14.38
2017-03-31T01:16:57.704Z,14.51
2017-03-31T01:17:38.131Z,14.41
2017-03-31T01:18:18.557Z,14.51
2017-03-31T01:18:58.920Z,14.52
2017-03-31T01:19:39.373Z,14.43
2017-03-31T01:20:19.774Z,14.49
2017-03-31T01:21:00.188Z,14.61
2017-03-31T01:21:40.593Z,14.59
2017-03-31T01:22:21.007Z,14.58
2017-03-31T01:23:01.512Z,14.61
2017-03-31T01:23:41.909Z,14.62
2017-03-31T01:24:22.277Z,14.61
2017-03-31T01:25:02.740Z,14.67
2017-03-31T01:25:43.195Z,14.67
2017-03-31T01:26:23.574Z,14.73
2017-03-31T01:27:03.966Z,14.74
2017-03-31T01:27:44.397Z,14.79
2017-03-31T01:28:24.748Z,14.7
2017-03-31T01:29:05.191Z,14.77
2017-03-31T01:29:45.623Z,14.7
2017-03-31T01:30:25.980Z,14.85
2017-03-31T01:31:06.419Z,14.89
2017-03-31T01:31:46.873Z,14.78
2017-03-31T01:32:27.222Z,14.9
2017-03-31T01:33:07.653Z,14.92
2017-03-31T01:33:48.036Z,14.87
2017-03-31T01:34:28.478Z,14.9
2017-03-31T01:35:08.913Z,14.87
2017-03-31T01:35:49.277Z,14.79
2017-03-31T01:36:29.742Z,14.85
2017-03-31T01:37:10.125Z,14.86
2017-03-31T01:37:50.568Z,14.85
2017-03-31T01:38:30.979Z,14.85
2017-03-31T01:39:11.383Z,14.86
2017-03-31T01:39:51.793Z,14.89
2017-03-31T01:40:32.193Z,14.81
2017-03-31T01:41:12.614Z,14.87
2017-03-31T01:41:52.987Z,14.82
2017-03-31T01:42:33.471Z,14.81
2017-03-31T01:43:13.830Z,14.9
2017-03-31T01:43:54.261Z,14.87
2017-03-31T01:44:34.664Z,14.86
2017-03-31T01:45:15.074Z,14.82
2017-03-31T01:45:55.470Z,14.85
2017-03-31T01:46:35.921Z,14.81
2017-03-31T01:47:16.329Z,14.77
2017-03-31T01:47:56.725Z,14.82
2017-03-31T01:48:37.110Z,14.73
2017-03-31T01:49:17.598Z,14.78
2017-03-31T01:49:57.979Z,14.82
2017-03-31T01:50:38.388Z,14.74
2017-03-31T01:51:18.845Z,14.73
2017-03-31T01:51:59.245Z,14.73
2017-03-31T01:52:39.712Z,14.73
2017-03-31T01:53:20.643Z,14.73
2017-03-31T01:54:01.019Z,14.74
2017-03-31T01:54:41.473Z,14.77
2017-03-31T01:55:21.850Z,14.77
2017-03-31T01:56:02.299Z,14.67
2017-03-31T01:56:42.715Z,14.78
2017-03-31T01:57:23.077Z,14.77
2017-03-31T01:58:03.541Z,14.74
2017-03-31T01:58:43.955Z,14.7
2017-03-31T01:59:24.340Z,14.77
2017-03-31T02:00:04.777Z,14.77
2017-03-31T02:00:45.205Z,14.73
2017-03-31T02:01:25.624Z,14.82
2017-03-31T02:02:06.055Z,14.74
2017-03-31T02:02:46.460Z,14.74
2017-03-31T02:03:26.892Z,14.66
2017-03-31T02:04:07.270Z,14.73
2017-03-31T02:04:47.677Z,14.78
2017-03-31T02:05:28.110Z,14.77
2017-03-31T02:06:08.522Z,14.77
2017-03-31T02:06:48.962Z,14.7
2017-03-31T02:07:29.347Z,14.73
2017-03-31T02:08:09.749Z,14.67
2017-03-31T02:08:50.188Z,14.62
2017-03-31T02:09:30.709Z,14.73
2017-03-31T02:10:11.118Z,14.67
2017-03-31T02:10:51.570Z,14.56
2017-03-31T02:11:31.919Z,14.66
2017-03-31T02:12:12.368Z,14.62
2017-03-31T02:12:52.789Z,14.63
2017-03-31T02:13:33.187Z,14.66
2017-03-31T02:14:13.594Z,14.66
2017-03-31T02:14:53.987Z,14.58
2017-03-31T02:15:34.449Z,14.49
2017-03-31T02:16:14.889Z,14.49
2017-03-31T02:16:55.334Z,14.49
2017-03-31T02:17:35.736Z,14.45
2017-03-31T02:18:16.154Z,14.44
2017-03-31T02:18:56.579Z,14.36
2017-03-31T02:19:36.957Z,14.38
2017-03-31T02:20:17.381Z,14.37
2017-03-31T02:20:57.758Z,14.41
2017-03-31T02:21:38.166Z,14.33
2017-03-31T02:22:18.562Z,14.36
2017-03-31T02:22:59.005Z,14.36
2017-03-31T02:23:39.564Z,14.38
2017-03-31T02:24:19.922Z,14.34
2017-03-31T02:25:00.335Z,14.41
2017-03-31T02:25:40.713Z,14.36
2017-03-31T02:26:21.139Z,14.37
2017-03-31T02:27:01.541Z,14.36
2017-03-31T02:27:41.960Z,14.31
2017-03-31T02:28:22.340Z,14.3
2017-03-31T02:29:02.776Z,14.37
2017-03-31T02:29:43.165Z,14.31
2017-03-31T02:30:23.540Z,14.28
2017-03-31T02:31:03.945Z,14.36
2017-03-31T02:31:44.338Z,14.23
2017-03-31T02:32:24.778Z,14.26
2017-03-31T02:33:05.136Z,14.22
2017-03-31T02:33:45.566Z,14.19
2017-03-31T02:34:26.022Z,14.18
2017-03-31T02:35:06.383Z,14.26
2017-03-31T02:35:46.818Z,14.22
2017-03-31T02:36:27.217Z,14.15
2017-03-31T02:37:07.729Z,14.19
2017-03-31T02:37:48.108Z,14.15
2017-03-31T02:38:28.516Z,14.05
2017-03-31T02:39:08.936Z,14.13
2017-03-31T02:39:49.335Z,14.16
2017-03-31T02:40:29.759Z,14.03
2017-03-31T02:41:10.145Z,14.07
2017-03-31T02:41:50.591Z,14.08
2017-03-31T02:42:31.003Z,14.12
2017-03-31T02:43:11.438Z,14.01
2017-03-31T02:43:51.876Z,14.07
2017-03-31T02:44:32.235Z,14.03
2017-03-31T02:45:12.666Z,13.98
2017-03-31T02:45:53.066Z,13.95
2017-03-31T02:46:33.477Z,13.89
2017-03-31T02:47:13.872Z,13.97
2017-03-31T02:47:54.333Z,13.86
2017-03-31T02:48:34.724Z,13.87
2017-03-31T02:49:15.146Z,13.91
2017-03-31T02:49:55.556Z,13.78
2017-03-31T02:50:35.949Z,13.79
2017-03-31T02:51:16.361Z,13.79
2017-03-31T02:51:56.759Z,13.73
2017-03-31T02:52:37.234Z,13.71
2017-03-31T02:53:17.624Z,13.73
2017-03-31T02:53:58.009Z,13.75
2017-03-31T02:54:38.427Z,13.6
2017-03-31T02:55:18.892Z,13.64
2017-03-31T02:55:59.316Z,13.6
2017-03-31T02:56:39.771Z,13.57
2017-03-31T02:57:20.195Z,13.52
2017-03-31T02:58:00.640Z,13.47
2017-03-31T02:58:41.068Z,13.42
2017-03-31T02:59:21.522Z,13.36
2017-03-31T03:00:01.913Z,13.31
2017-03-31T03:00:42.336Z,13.31
2017-03-31T03:01:22.770Z,13.39
2017-03-31T03:02:03.168Z,13.28
2017-03-31T03:02:43.660Z,13.27
2017-03-31T03:03:24.015Z,13.26
2017-03-31T03:04:04.440Z,13.16
2017-03-31T03:04:44.868Z,13.13
2017-03-31T03:05:25.254Z,13.12
2017-03-31T03:06:05.614Z,13.13
2017-03-31T03:06:46.098Z,13.02
2017-03-31T03:07:26.448Z,13.06
2017-03-31T03:08:06.883Z,13.02
2017-03-31T03:08:47.293Z,13.03
2017-03-31T03:09:27.689Z,12.91
2017-03-31T03:10:08.175Z,12.94
2017-03-31T03:10:48.559Z,12.95
2017-03-31T03:11:28.972Z,12.9
2017-03-31T03:12:09.349Z,12.95
2017-03-31T03:12:49.769Z,12.86
2017-03-31T03:13:30.222Z,12.81
2017-03-31T03:14:12.237Z,12.75
2017-03-31T03:14:52.701Z,12.76
2017-03-31T03:15:33.157Z,12.61
2017-03-31T03:16:13.554Z,12.62
2017-03-31T03:16:53.984Z,12.62
2017-03-31T03:17:34.339Z,12.66
2017-03-31T03:18:14.716Z,12.61
2017-03-31T03:18:55.199Z,12.54
2017-03-31T03:19:35.592Z,12.55
2017-03-31T03:20:15.992Z,12.51
2017-03-31T03:20:56.397Z,12.45
2017-03-31T03:21:36.833Z,12.39
2017-03-31T03:22:17.223Z,12.39
2017-03-31T03:22:57.697Z,12.35
2017-03-31T03:23:38.082Z,12.3
2017-03-31T03:24:18.528Z,12.26
2017-03-31T03:24:58.871Z,12.25
2017-03-31T03:25:39.333Z,12.21
2017-03-31T03:26:19.741Z,12.17
2017-03-31T03:27:00.124Z,12.23
2017-03-31T03:27:40.557Z,12.08
2017-03-31T03:28:21.146Z,12.18
2017-03-31T03:29:01.681Z,12.12
2017-03-31T03:29:42.019Z,12.12
2017-03-31T03:30:22.440Z,12.1
2017-03-31T03:31:02.801Z,12.08
2017-03-31T03:31:44.840Z,12
2017-03-31T03:32:25.337Z,12.03
2017-03-31T03:33:07.764Z,11.88
2017-03-31T03:33:48.204Z,11.96
2017-03-31T03:34:33.132Z,11.91
2017-03-31T03:35:16.028Z,11.86
2017-03-31T03:35:56.589Z,11.88
2017-03-31T03:36:37.044Z,11.83
2017-03-31T03:37:18.099Z,11.88
2017-03-31T03:38:01.131Z,11.83
2017-03-31T03:38:42.587Z,11.78
2017-03-31T03:39:26.443Z,11.68
2017-03-31T03:40:06.861Z,11.77
2017-03-31T03:40:47.237Z,11.7
2017-03-31T03:41:27.660Z,11.73
2017-03-31T03:42:08.106Z,11.71
2017-03-31T03:42:48.539Z,11.74
2017-03-31T03:43:29.010Z,11.78
2017-03-31T03:44:09.414Z,11.74
2017-03-31T03:44:49.817Z,11.88
2017-03-31T03:45:30.248Z,11.89
2017-03-31T03:46:10.648Z,11.86
2017-03-31T03:46:51.073Z,11.95
2017-03-31T03:47:31.515Z,11.93
2017-03-31T03:48:11.949Z,11.91
2017-03-31T03:48:52.349Z,11.89
2017-03-31T03:49:32.754Z,11.95
2017-03-31T03:50:13.180Z,12
2017-03-31T03:50:53.599Z,12.08
2017-03-31T03:51:33.976Z,12.03
2017-03-31T03:52:14.406Z,12.05
2017-03-31T03:52:54.858Z,12
2017-03-31T03:53:35.187Z,12
2017-03-31T03:54:16.424Z,11.97
2017-03-31T03:54:56.796Z,12
2017-03-31T03:55:37.241Z,11.97
2017-03-31T03:56:17.667Z,12
2017-03-31T03:56:58.001Z,11.96
2017-03-31T03:57:38.421Z,12
2017-03-31T03:58:18.872Z,11.91
2017-03-31T03:58:59.301Z,11.89
2017-03-31T03:59:39.681Z,11.96
2017-03-31T04:00:20.102Z,11.95
2017-03-31T04:01:00.518Z,11.95
2017-03-31T04:01:40.902Z,11.86
2017-03-31T04:02:21.334Z,11.78
2017-03-31T04:03:01.769Z,11.73
2017-03-31T04:03:42.245Z,11.8
2017-03-31T04:04:22.709Z,11.8
2017-03-31T04:05:03.055Z,11.68
2017-03-31T04:05:43.503Z,11.76
2017-03-31T04:06:23.911Z,11.76
2017-03-31T04:07:04.337Z,11.7
2017-03-31T04:07:44.744Z,11.71
2017-03-31T04:08:25.172Z,11.65
2017-03-31T04:09:06.334Z,11.7
2017-03-31T04:09:46.760Z,11.63
2017-03-31T04:10:27.110Z,11.65
2017-03-31T04:11:07.541Z,11.59
2017-03-31T04:11:48.005Z,11.65
2017-03-31T04:12:28.389Z,11.58
2017-03-31T04:13:08.812Z,11.44
2017-03-31T04:13:49.186Z,11.56
2017-03-31T04:14:29.635Z,11.49
2017-03-31T04:15:10.032Z,11.51
2017-03-31T04:15:50.437Z,11.49
2017-03-31T04:16:30.881Z,11.49
2017-03-31T04:17:11.247Z,11.4
2017-03-31T04:17:51.700Z,11.34
2017-03-31T04:18:32.094Z,11.33
2017-03-31T04:19:12.516Z,11.3
2017-03-31T04:19:52.955Z,11.26
2017-03-31T04:20:33.345Z,11.26
2017-03-31T04:21:13.767Z,11.25
2017-03-31T04:21:54.156Z,11.23
2017-03-31T04:22:34.581Z,11.13
2017-03-31T04:23:14.959Z,11.2
2017-03-31T04:23:55.375Z,11.16
2017-03-31T04:24:35.799Z,11.19
2017-03-31T04:25:16.199Z,11.15
2017-03-31T04:25:56.642Z,11.16
2017-03-31T04:26:37.043Z,11.12
2017-03-31T04:27:17.441Z,11.13
2017-03-31T04:27:57.822Z,11.13
2017-03-31T04:28:38.262Z,11.15
2017-03-31T04:29:18.724Z,11.04
2017-03-31T04:29:59.106Z,11.12
2017-03-31T04:30:39.539Z,11.1
2017-03-31T04:31:19.970Z,11.07
2017-03-31T04:32:01.333Z,11.1
2017-03-31T04:32:41.803Z,11.08
2017-03-31T04:33:22.949Z,11.12
2017-03-31T04:34:03.813Z,11.07
2017-03-31T04:34:44.785Z,11.05
2017-03-31T04:35:26.137Z,10.95
2017-03-31T04:36:07.906Z,10.89
2017-03-31T04:36:48.366Z,10.86
2017-03-31T04:37:29.744Z,10.92
2017-03-31T04:38:10.117Z,10.86
2017-03-31T04:38:50.533Z,10.87
2017-03-31T04:39:30.996Z,10.84
2017-03-31T04:40:11.385Z,10.82
2017-03-31T04:40:51.807Z,10.72
2017-03-31T04:41:32.240Z,10.76
2017-03-31T04:42:12.667Z,10.68
2017-03-31T04:42:53.042Z,10.68
2017-03-31T04:43:33.553Z,10.75
2017-03-31T04:44:13.852Z,10.67
2017-03-31T04:44:54.297Z,10.62
2017-03-31T04:45:34.750Z,10.53
2017-03-31T04:46:15.154Z,10.58
2017-03-31T04:46:55.765Z,10.53
2017-03-31T04:47:36.533Z,10.58
2017-03-31T04:48:17.027Z,10.48
2017-03-31T04:48:57.405Z,10.48
2017-03-31T04:49:37.803Z,10.42
2017-03-31T04:50:18.218Z,10.43
2017-03-31T04:50:58.605Z,10.34
2017-03-31T04:51:38.974Z,10.42
2017-03-31T04:52:19.386Z,10.45
2017-03-31T04:52:59.799Z,10.36
2017-03-31T04:53:40.247Z,10.36
2017-03-31T04:54:20.639Z,10.3
2017-03-31T04:55:01.034Z,10.23
2017-03-31T04:55:41.436Z,10.23
2017-03-31T04:56:21.879Z,10.21
2017-03-31T04:57:02.320Z,10.2
2017-03-31T04:57:42.745Z,10.25
2017-03-31T04:58:24.500Z,10.25
2017-03-31T04:59:04.755Z,10.13
2017-03-31T04:59:47.018Z,10.13
2017-03-31T05:00:30.606Z,10.17
2017-03-31T05:01:11.078Z,10.1
2017-03-31T05:04:42.742Z,10.06
2017-03-31T05:06:26.568Z,10
2017-03-31T05:07:12.372Z,9.91
2017-03-31T05:08:00.853Z,9.87
2017-03-31T05:08:49.870Z,9.85
2017-03-31T05:09:36.151Z,9.84
2017-03-31T05:10:25.160Z,9.88
2017-03-31T05:11:13.630Z,9.85
2017-03-31T05:12:02.304Z,9.9
2017-03-31T05:12:50.454Z,9.82
2017-03-31T05:13:38.474Z,9.82
2017-03-31T05:14:18.843Z,9.76
2017-03-31T05:14:59.263Z,9.73
2017-03-31T05:16:48.763Z,9.72
2017-03-31T05:17:37.543Z,9.74
2017-03-31T05:18:26.004Z,9.69
2017-03-31T05:19:14.497Z,9.69
2017-03-31T05:20:02.937Z,9.76
2017-03-31T05:20:51.234Z,9.7
2017-03-31T05:21:38.104Z,9.72
2017-03-31T05:22:26.346Z,9.73
2017-03-31T05:23:15.133Z,9.72
2017-03-31T05:24:03.305Z,9.81
2017-03-31T05:24:51.861Z,9.8
2017-03-31T05:25:38.159Z,9.87
2017-03-31T05:26:18.527Z,9.88
2017-03-31T05:26:58.968Z,9.9
2017-03-31T05:27:39.338Z,9.92
2017-03-31T05:28:19.748Z,9.92
2017-03-31T05:29:00.181Z,9.95
2017-03-31T05:29:40.562Z,9.92
2017-03-31T05:30:21.087Z,9.82
2017-03-31T05:31:01.488Z,9.84
2017-03-31T05:31:41.922Z,9.81
2017-03-31T05:32:22.343Z,9.87
2017-03-31T05:33:02.860Z,9.81
2017-03-31T05:33:43.243Z,9.88
2017-03-31T05:34:23.699Z,9.85
2017-03-31T05:35:04.238Z,9.85
2017-03-31T05:35:44.880Z,9.85
2017-03-31T05:36:25.294Z,9.77
2017-03-31T05:37:05.710Z,9.87
2017-03-31T05:37:46.254Z,9.88
2017-03-31T05:38:26.866Z,9.85
2017-03-31T05:39:07.423Z,9.85
2017-03-31T05:39:49.612Z,9.85
2017-03-31T05:40:30.046Z,9.9
2017-03-31T05:41:10.634Z,9.9
2017-03-31T05:41:51.061Z,9.9
2017-03-31T05:42:31.768Z,9.92
2017-03-31T05:43:12.222Z,9.94
2017-03-31T05:43:52.959Z,9.9
2017-03-31T05:44:33.268Z,9.91
2017-03-31T05:45:13.818Z,9.99
2017-03-31T05:45:54.217Z,10.02
2017-03-31T05:46:34.687Z,10.05
2017-03-31T05:47:15.244Z,10.09
2017-03-31T05:47:55.790Z,10.07
2017-03-31T05:48:36.124Z,10.15
2017-03-31T05:49:16.560Z,10.06
2017-03-31T05:49:57.050Z,10.03
2017-03-31T05:50:37.693Z,10.03
2017-03-31T05:51:18.456Z,10
2017-03-31T05:51:58.918Z,10.12
2017-03-31T05:52:39.532Z,10.18
2017-03-31T05:53:19.823Z,10.13
2017-03-31T05:54:00.282Z,10.31
2017-03-31T05:54:40.889Z,10.34
2017-03-31T05:55:21.290Z,10.33
2017-03-31T05:56:01.713Z,10.42
2017-03-31T05:56:42.287Z,10.46
2017-03-31T05:57:23.134Z,10.42
2017-03-31T05:58:03.631Z,10.42
2017-03-31T05:58:44.017Z,10.53
2017-03-31T05:59:24.861Z,10.53
2017-03-31T06:00:05.628Z,10.57
2017-03-31T06:00:46.353Z,10.62
2017-03-31T06:01:26.792Z,10.68
2017-03-31T06:02:07.379Z,10.67
2017-03-31T06:02:48.012Z,10.76
2017-03-31T06:03:28.978Z,10.8
2017-03-31T06:04:10.789Z,10.82
2017-03-31T06:04:52.725Z,10.9
2017-03-31T06:05:33.340Z,10.94
2017-03-31T06:06:13.841Z,10.86
2017-03-31T06:06:54.268Z,10.94
2017-03-31T06:07:34.718Z,10.92
2017-03-31T06:08:15.164Z,11.12
2017-03-31T06:08:55.842Z,11.12
2017-03-31T06:09:36.082Z,11.15
2017-03-31T06:10:16.711Z,11.33
2017-03-31T06:10:57.160Z,11.38
2017-03-31T06:11:37.533Z,11.53
2017-03-31T06:12:17.906Z,11.49
2017-03-31T06:12:58.369Z,11.65
2017-03-31T06:13:38.832Z,11.74
2017-03-31T06:14:19.147Z,11.86
2017-03-31T06:14:59.544Z,11.99
2017-03-31T06:15:39.941Z,12.12
2017-03-31T06:16:20.546Z,12.2
2017-03-31T06:17:01.313Z,12.2
2017-03-31T06:17:41.735Z,12.35
2017-03-31T06:18:22.134Z,12.51
2017-03-31T06:19:04.248Z,12.62
2017-03-31T06:19:44.731Z,12.62
2017-03-31T06:20:25.309Z,12.78
2017-03-31T06:21:05.682Z,12.91
2017-03-31T06:21:46.130Z,12.91
2017-03-31T06:22:26.734Z,13.06
2017-03-31T06:23:07.313Z,13.2
2017-03-31T06:23:47.697Z,13.19
2017-03-31T06:24:28.196Z,13.39
2017-03-31T06:25:08.673Z,13.49
2017-03-31T06:25:49.128Z,13.57
2017-03-31T06:26:29.532Z,13.7
2017-03-31T06:27:10.034Z,13.73
2017-03-31T06:27:50.443Z,13.85
2017-03-31T06:28:31.073Z,14.07
2017-03-31T06:29:11.689Z,14.18
2017-03-31T06:29:52.037Z,14.25
2017-03-31T06:30:32.485Z,14.44
2017-03-31T06:31:13.121Z,14.59
2017-03-31T06:31:53.550Z,14.71
2017-03-31T06:32:33.992Z,14.78
2017-03-31T06:33:14.367Z,14.9
2017-03-31T06:33:54.787Z,15
2017-03-31T06:34:35.315Z,15.18
2017-03-31T06:35:15.756Z,15.32
2017-03-31T06:35:56.146Z,15.37
2017-03-31T06:36:36.589Z,15.57
2017-03-31T06:37:16.952Z,15.62
2017-03-31T06:37:57.383Z,15.75
2017-03-31T06:38:37.803Z,15.91
2017-03-31T06:39:18.208Z,15.94
2017-03-31T06:39:58.622Z,16.05
2017-03-31T06:40:39.034Z,16.21
2017-03-31T06:41:19.401Z,16.22
2017-03-31T06:41:59.785Z,16.32
2017-03-31T06:42:40.231Z,16.5
2017-03-31T06:43:20.641Z,16.59
2017-03-31T06:44:01.068Z,16.68
2017-03-31T06:44:41.497Z,16.82
2017-03-31T06:45:21.939Z,16.8
2017-03-31T06:46:02.343Z,16.87
2017-03-31T06:46:42.784Z,16.99
2017-03-31T06:47:23.137Z,17.09
2017-03-31T06:48:03.569Z,17.1
2017-03-31T06:48:43.978Z,17.14
2017-03-31T06:49:24.372Z,17.19
2017-03-31T06:50:04.761Z,17.28
2017-03-31T06:50:45.206Z,17.42
2017-03-31T06:51:25.655Z,17.42
2017-03-31T06:52:06.077Z,17.47
2017-03-31T06:52:46.537Z,17.53
2017-03-31T06:53:26.938Z,17.63
2017-03-31T06:54:08.077Z,17.68
2017-03-31T06:54:48.419Z,17.8
2017-03-31T06:55:28.887Z,17.9
2017-03-31T06:56:09.309Z,17.9
2017-03-31T06:56:49.718Z,17.9
2017-03-31T06:57:30.082Z,17.98
2017-03-31T06:58:10.513Z,18
2017-03-31T06:58:50.936Z,18.09
2017-03-31T06:59:31.404Z,18.05
2017-03-31T07:00:11.789Z,18.09
2017-03-31T07:00:52.186Z,18.19
2017-03-31T07:01:32.626Z,18.31
2017-03-31T07:02:12.998Z,18.3
2017-03-31T07:02:53.405Z,18.33
2017-03-31T07:03:34.759Z,18.41
2017-03-31T07:04:15.240Z,18.46
2017-03-31T07:04:55.640Z,18.52
2017-03-31T07:05:36.106Z,18.58
2017-03-31T07:06:16.499Z,18.63
2017-03-31T07:06:56.945Z,18.6
2017-03-31T07:07:37.320Z,18.63
2017-03-31T07:08:17.741Z,18.63
2017-03-31T07:08:58.201Z,18.7
2017-03-31T07:09:38.605Z,18.73
2017-03-31T07:10:19.010Z,18.71
2017-03-31T07:10:59.421Z,18.7
2017-03-31T07:11:39.825Z,18.76
2017-03-31T07:12:20.230Z,18.82
2017-03-31T07:13:00.596Z,18.91
2017-03-31T07:13:41.072Z,18.92
2017-03-31T07:14:21.476Z,18.92
2017-03-31T07:15:01.909Z,18.96
2017-03-31T07:15:42.308Z,19.04
2017-03-31T07:16:22.710Z,19.15
2017-03-31T07:17:03.159Z,19.12
2017-03-31T07:17:43.604Z,19.11
2017-03-31T07:18:24.001Z,19.24
2017-03-31T07:19:04.396Z,19.22
2017-03-31T07:19:44.824Z,19.2
2017-03-31T07:20:25.229Z,19.32
2017-03-31T07:21:06.327Z,19.34
2017-03-31T07:21:47.260Z,19.3
2017-03-31T07:22:27.637Z,19.44
2017-03-31T07:23:08.070Z,19.55
2017-03-31T07:23:48.506Z,19.6
2017-03-31T07:24:28.940Z,19.55
2017-03-31T07:25:09.388Z,19.62
2017-03-31T07:25:49.777Z,19.59
2017-03-31T07:26:30.196Z,19.7
2017-03-31T07:27:10.609Z,19.62
2017-03-31T07:27:51.043Z,19.6
2017-03-31T07:28:31.462Z,19.66
2017-03-31T07:29:11.900Z,19.64
2017-03-31T07:29:53.049Z,19.62
2017-03-31T07:30:33.459Z,19.71
2017-03-31T07:31:13.919Z,19.71
2017-03-31T07:33:03.659Z,19.85
2017-03-31T07:33:47.625Z,19.81
2017-03-31T07:34:28.934Z,19.89
2017-03-31T07:35:09.353Z,19.84
2017-03-31T07:35:49.744Z,19.9
2017-03-31T07:36:30.184Z,20
2017-03-31T07:37:10.624Z,20.08
2017-03-31T07:37:51.041Z,20.04
2017-03-31T07:38:31.406Z,20.18
2017-03-31T07:39:11.866Z,20.26
2017-03-31T07:39:52.260Z,20.3
2017-03-31T07:40:33.542Z,20.3
2017-03-31T07:41:13.947Z,20.39
2017-03-31T07:41:54.334Z,20.49
2017-03-31T07:42:34.782Z,20.55
2017-03-31T07:43:15.800Z,20.64
2017-03-31T07:43:56.187Z,20.6
2017-03-31T07:44:36.598Z,20.7
2017-03-31T07:45:16.978Z,20.58
2017-03-31T07:45:57.387Z,20.67
2017-03-31T07:46:37.817Z,20.74
2017-03-31T07:47:18.255Z,20.67
2017-03-31T07:47:58.701Z,20.85
2017-03-31T07:48:39.106Z,20.9
2017-03-31T07:49:19.594Z,20.88
2017-03-31T07:49:59.956Z,20.85
2017-03-31T07:50:40.392Z,20.96
2017-03-31T07:51:20.863Z,21
2017-03-31T07:52:02.952Z,21.03
2017-03-31T07:52:43.399Z,21.13
2017-03-31T07:53:23.800Z,21.11
2017-03-31T07:54:05.698Z,21.28
2017-03-31T07:54:46.076Z,21.37
2017-03-31T07:55:28.279Z,21.38
2017-03-31T07:56:09.119Z,21.51
2017-03-31T07:56:49.400Z,21.51
2017-03-31T07:57:29.813Z,21.65
2017-03-31T07:58:11.274Z,21.8
2017-03-31T08:00:24.961Z,22.06
2017-03-31T08:01:06.698Z,22.15
2017-03-31T08:01:49.083Z,22.18
2017-03-31T08:02:29.951Z,22.25
2017-03-31T08:03:10.446Z,22.46
2017-03-31T08:03:50.817Z,22.56
2017-03-31T08:04:31.236Z,22.63
2017-03-31T08:05:12.445Z,22.71
2017-03-31T08:05:54.703Z,22.84
2017-03-31T08:06:36.852Z,22.95
2017-03-31T08:07:17.329Z,23.01
2017-03-31T08:07:58.701Z,23.21
2017-03-31T08:08:39.105Z,23.47
2017-03-31T08:09:19.534Z,23.79
2017-03-31T08:10:00.531Z,24.29
2017-03-31T08:10:42.096Z,24.97
2017-03-31T08:11:22.496Z,25.58
2017-03-31T08:12:03.728Z,26.27
2017-03-31T08:12:44.142Z,27
2017-03-31T08:13:24.650Z,27.85
2017-03-31T08:14:05.723Z,28.46
2017-03-31T08:14:46.113Z,29.1
2017-03-31T08:15:26.497Z,29.79
2017-03-31T08:16:06.998Z,30.27
2017-03-31T08:16:47.412Z,30.74
2017-03-31T08:17:28.781Z,31.07
2017-03-31T08:18:09.811Z,31.51
2017-03-31T08:18:50.210Z,31.64
2017-03-31T08:19:30.607Z,31.89
2017-03-31T08:20:11.022Z,32.02
2017-03-31T08:21:00.382Z,32.15
2017-03-31T08:21:40.800Z,32.38
2017-03-31T08:22:22.711Z,32.76
2017-03-31T08:23:03.989Z,33.09
2017-03-31T08:23:45.328Z,33.51
2017-03-31T08:24:25.713Z,33.88
2017-03-31T08:25:06.137Z,34.22
2017-03-31T08:25:47.327Z,34.53
2017-03-31T08:26:28.435Z,34.88
2017-03-31T08:27:08.886Z,35.16
2017-03-31T08:27:49.337Z,35.37
2017-03-31T08:28:29.768Z,35.54
2017-03-31T08:29:10.166Z,35.59
2017-03-31T08:29:51.216Z,35.71
2017-03-31T08:30:31.636Z,35.61
2017-03-31T08:31:12.863Z,35.63
2017-03-31T08:31:53.811Z,35.56
2017-03-31T08:32:34.215Z,35.64
2017-03-31T08:33:15.308Z,35.64
2017-03-31T08:33:56.435Z,35.59
2017-03-31T08:34:36.941Z,35.75
2017-03-31T08:35:18.091Z,35.84
2017-03-31T08:35:58.503Z,35.94
2017-03-31T08:36:38.968Z,36.14
2017-03-31T08:37:19.401Z,36.17
2017-03-31T08:37:59.826Z,36.25
2017-03-31T08:39:59.814Z,36.78
2017-03-31T08:40:40.642Z,37.04
2017-03-31T08:41:24.357Z,37.33
2017-03-31T08:42:05.443Z,37.6
2017-03-31T08:42:46.616Z,37.85
2017-03-31T08:43:27.924Z,38.16
2017-03-31T08:44:08.412Z,38.42
2017-03-31T08:44:50.412Z,38.62
2017-03-31T08:45:33.641Z,38.85
2017-03-31T08:46:14.060Z,39.05
2017-03-31T08:46:55.113Z,39.17
2017-03-31T08:48:42.529Z,39.19
2017-03-31T08:49:22.972Z,39.17
2017-03-31T08:50:04.154Z,39.26
2017-03-31T08:50:45.384Z,39.46
2017-03-31T08:51:26.472Z,39.68
2017-03-31T08:52:06.922Z,39.82
2017-03-31T08:52:47.380Z,39.94
2017-03-31T08:54:25.137Z,40.23
2017-03-31T08:55:06.253Z,40.32
2017-03-31T08:55:48.238Z,40.43
2017-03-31T08:56:31.228Z,40.43
2017-03-31T08:57:12.225Z,40.35
2017-03-31T08:57:52.634Z,40.04
2017-03-31T08:58:33.656Z,39.94
2017-03-31T08:59:15.046Z,39.91
2017-03-31T08:59:56.237Z,39.82